Time;durP1;ratioP1;P1;durP2;ratioP2;P2;SDS_P1;SDS_P2;PMS_P1;PMS_P2;Temp;Humidity;BMP_temperature;BMP_pressure;BME280_temperature;BME280_humidity;BME280_pressure;Samples;Min_cycle;Max_cycle;Signal;HPM_P1;HPM_P2
2023/02/20 00:02:06;;;;;;;0.10;0.10;;;;;;;14.15;100.00;100457.09;7396571;19;20082;-59
2023/02/20 00:04:32;;;;;;;0.98;0.25;;;;;;;13.75;100.00;100452.13;7394755;19;20018;-59
2023/02/20 00:06:58;;;;;;;0.10;0.10;;;;;;;13.53;100.00;100458.13;7393405;19;20481;-59
2023/02/20 00:09:24;;;;;;;1.45;0.47;;;;;;;13.49;100.00;100448.38;7392921;19;20017;-59
2023/02/20 00:11:50;;;;;;;0.17;0.17;;;;;;;13.97;100.00;100446.13;7394665;19;20014;-59
2023/02/20 00:14:16;;;;;;;0.10;0.10;;;;;;;13.87;100.00;100439.09;7393326;19;20456;-59
2023/02/20 00:16:46;;;;;;;0.10;0.10;;;;;;;14.15;100.00;100434.69;7393300;19;20062;-59
2023/02/20 00:19:12;;;;;;;0.20;0.20;;;;;;;14.39;100.00;100443.75;7393870;19;20032;-59
2023/02/20 00:21:45;;;;;;;5.38;0.30;;;;;;;14.51;100.00;100434.25;7394544;19;20013;-59
2023/02/20 00:24:11;;;;;;;0.20;0.10;;;;;;;13.92;100.00;100438.41;7393024;19;20010;-59
2023/02/20 00:26:37;;;;;;;0.10;0.10;;;;;;;13.75;100.00;100437.38;7392657;19;20011;-59
2023/02/20 00:29:03;;;;;;;0.10;0.10;;;;;;;13.58;100.00;100432.25;7397831;19;20018;-59
2023/02/20 00:31:30;;;;;;;0.10;0.10;;;;;;;13.67;100.00;100434.94;7395319;19;20108;-59
2023/02/20 00:33:56;;;;;;;0.45;0.43;;;;;;;14.09;100.00;100437.44;7392837;19;20002;-59
2023/02/20 00:36:22;;;;;;;0.52;0.30;;;;;;;14.38;100.00;100425.38;7393736;19;20413;-59
2023/02/20 00:38:48;;;;;;;0.15;0.15;;;;;;;13.83;100.00;100416.13;7391824;19;20010;-59
2023/02/20 00:41:16;;;;;;;0.10;0.10;;;;;;;14.10;100.00;100426.97;7391566;19;20448;-58
2023/02/20 00:43:42;;;;;;;0.20;0.20;;;;;;;14.52;100.00;100418.19;7392166;19;20019;-58
2023/02/20 00:46:13;;;;;;;0.10;0.10;;;;;;;13.66;100.00;100415.84;7397128;19;20018;-59
2023/02/20 00:48:39;;;;;;;0.10;0.10;;;;;;;14.05;100.00;100408.84;7393426;19;20100;-59
2023/02/20 00:51:23;;;;;;;0.10;0.00;;;;;;;17.40;100.00;100393.13;7393504;19;20018;-59
2023/02/20 00:53:50;;;;;;;0.10;0.00;;;;;;;17.85;100.00;100397.56;7390975;19;20010;-60
2023/02/20 00:56:16;;;;;;;0.10;0.10;;;;;;;16.40;100.00;100395.56;7391956;19;20526;-59
2023/02/20 00:58:42;;;;;;;0.47;0.47;;;;;;;20.10;100.00;100392.66;7394847;19;20459;-59
2023/02/20 01:01:09;;;;;;;0.10;0.10;;;;;;;16.57;100.00;100404.88;7387616;19;20462;-59
2023/02/20 01:03:35;;;;;;;0.10;0.10;;;;;;;14.41;100.00;100419.59;7390430;19;20371;-59
2023/02/20 01:06:01;;;;;;;0.55;0.43;;;;;;;23.57;85.17;100398.13;7393514;19;20007;-59
2023/02/20 01:08:28;;;;;;;1.00;0.22;;;;;;;21.93;74.92;100393.94;7392216;19;20462;-59
2023/02/20 01:10:55;;;;;;;0.10;0.10;;;;;;;15.13;100.00;100411.31;7390950;19;20014;-59
2023/02/20 01:13:21;;;;;;;0.10;0.00;;;;;;;13.94;100.00;100407.91;7396167;19;20402;-59
2023/02/20 01:15:47;;;;;;;1.23;0.15;;;;;;;13.55;100.00;100410.06;7391164;19;20017;-59
2023/02/20 01:18:15;;;;;;;0.10;0.00;;;;;;;13.26;100.00;100408.00;7391228;19;20097;-58
2023/02/20 01:20:41;;;;;;;0.47;0.30;;;;;;;14.09;100.00;100398.22;7387787;19;20019;-59
2023/02/20 01:23:07;;;;;;;0.10;0.00;;;;;;;13.33;100.00;100398.47;7394489;19;20015;-59
2023/02/20 01:25:34;;;;;;;0.30;0.25;;;;;;;13.55;100.00;100390.47;7388242;19;20110;-59
2023/02/20 01:28:00;;;;;;;0.20;0.20;;;;;;;13.30;100.00;100405.78;7392739;19;20014;-59
2023/02/20 01:30:26;;;;;;;0.45;0.10;;;;;;;18.27;100.00;100390.84;7390230;19;20064;-59
2023/02/20 01:32:53;;;;;;;0.20;0.17;;;;;;;16.85;100.00;100404.25;7392861;19;20021;-59
2023/02/20 01:35:19;;;;;;;0.20;0.20;;;;;;;13.65;100.00;100398.28;7391177;19;20027;-58
2023/02/20 01:37:45;;;;;;;1.05;0.10;;;;;;;14.20;100.00;100406.00;7389750;19;20021;-59
2023/02/20 01:40:20;;;;;;;0.15;0.10;;;;;;;14.42;100.00;100397.97;7387198;19;20011;-59
2023/02/20 01:42:47;;;;;;;0.20;0.20;;;;;;;14.43;100.00;100394.66;7393722;19;20014;-59
2023/02/20 01:45:15;;;;;;;0.20;0.10;;;;;;;13.67;100.00;100389.38;7393169;19;20013;-58
2023/02/20 01:47:41;;;;;;;0.25;0.20;;;;;;;13.57;100.00;100391.53;7391084;19;20014;-59
2023/02/20 01:50:09;;;;;;;0.28;0.20;;;;;;;13.36;100.00;100392.66;7390028;19;20029;-59
2023/02/20 01:52:39;;;;;;;0.38;0.22;;;;;;;13.47;100.00;100387.25;7392755;19;20014;-59
2023/02/20 01:55:10;;;;;;;0.73;0.40;;;;;;;13.61;100.00;100396.91;7390866;19;20014;-59
2023/02/20 01:57:40;;;;;;;0.10;0.10;;;;;;;13.91;100.00;100389.25;7390341;19;20466;-59
2023/02/20 02:00:15;;;;;;;0.10;0.10;;;;;;;13.80;100.00;100391.88;7388309;19;20011;-59
2023/02/20 02:02:47;;;;;;;0.35;0.10;;;;;;;14.52;100.00;100385.34;7394225;19;20473;-59
2023/02/20 02:05:13;;;;;;;0.10;0.10;;;;;;;14.29;100.00;100395.47;7388690;19;20341;-59
2023/02/20 02:07:40;;;;;;;0.17;0.17;;;;;;;14.52;100.00;100393.75;7390510;19;20014;-58
2023/02/20 02:10:11;;;;;;;0.20;0.20;;;;;;;15.19;100.00;100382.06;7389973;19;20108;-59
2023/02/20 02:12:39;;;;;;;0.10;0.10;;;;;;;14.81;100.00;100390.78;7392715;19;20040;-59
2023/02/20 02:15:16;;;;;;;0.20;0.10;;;;;;;15.23;100.00;100381.06;7387160;19;20031;-59
2023/02/20 02:17:42;;;;;;;0.10;0.10;;;;;;;17.33;100.00;100377.50;7388371;19;20018;-59
2023/02/20 02:20:12;;;;;;;0.10;0.10;;;;;;;19.37;90.48;100381.19;7385388;19;20011;-59
2023/02/20 02:23:03;;;;;;;0.10;0.10;;;;;;;21.22;97.07;100370.28;7391637;19;20503;-60
2023/02/20 02:26:07;;;;;;;0.10;0.10;;;;;;;16.85;100.00;100367.69;7388121;19;20003;-59
2023/02/20 02:28:58;;;;;;;0.10;0.10;;;;;;;15.26;100.00;100372.44;7392276;19;20033;-59
2023/02/20 02:31:41;;;;;;;0.10;0.10;;;;;;;15.16;100.00;100374.63;7387857;19;20462;-59
2023/02/20 02:34:29;;;;;;;0.22;0.20;;;;;;;19.27;100.00;100363.00;7387391;19;20011;-59
2023/02/20 02:37:15;;;;;;;0.20;0.10;;;;;;;17.65;100.00;100363.25;7388643;19;20011;-58
2023/02/20 02:39:50;;;;;;;0.10;0.10;;;;;;;23.03;86.24;100356.94;7388570;19;20462;-58
2023/02/20 02:42:22;;;;;;;0.10;0.10;;;;;;;25.85;66.00;100345.50;7392714;19;20022;-58
2023/02/20 02:45:01;;;;;;;0.10;0.10;;;;;;;20.39;84.54;100352.28;7390685;19;20015;-58
2023/02/20 02:47:40;;;;;;;0.10;0.10;;;;;;;25.92;64.34;100335.41;7388411;19;20010;-58
2023/02/20 02:50:31;;;;;;;0.10;0.00;;;;;;;26.66;58.21;100333.03;7389900;19;20011;-58
2023/02/20 02:52:57;;;;;;;;;;;;;;;26.48;56.60;100332.13;7392676;19;20037;-58
2023/02/20 02:55:29;;;;;;;0.10;0.00;;;;;;;26.27;56.21;100334.44;7388333;19;19966;-59
2023/02/20 02:57:56;;;;;;;0.10;0.10;;;;;;;26.00;55.13;100333.31;7391200;19;20015;-59
2023/02/20 03:00:28;;;;;;;0.10;0.00;;;;;;;26.19;54.78;100319.41;7387064;19;20019;-59
2023/02/20 03:03:09;;;;;;;0.10;0.00;;;;;;;26.39;53.42;100324.13;7391492;19;20070;-59
2023/02/20 03:05:45;;;;;;;0.10;0.10;;;;;;;26.51;52.51;100325.25;7387586;19;20015;-59
2023/02/20 03:08:21;;;;;;;0.10;0.10;;;;;;;26.40;52.04;100317.06;7387215;19;20378;-59
2023/02/20 03:10:52;;;;;;;0.10;0.10;;;;;;;26.10;52.51;100314.28;7386276;19;20031;-59
2023/02/20 03:13:20;;;;;;;0.10;0.10;;;;;;;25.10;53.72;100320.41;7392299;19;20466;-58
2023/02/20 03:15:52;;;;;;;0.10;0.10;;;;;;;25.09;54.41;100321.75;7387245;19;20024;-59
2023/02/20 03:18:36;;;;;;;0.10;0.00;;;;;;;25.40;54.96;100311.19;7386861;19;20365;-59
2023/02/20 03:21:12;;;;;;;0.20;0.10;;;;;;;24.53;55.61;100319.81;7387019;19;20014;-59
2023/02/20 03:23:43;;;;;;;0.10;0.00;;;;;;;24.04;58.09;100325.56;7389254;19;20011;-59
2023/02/20 03:26:16;;;;;;;0.10;0.00;;;;;;;20.68;71.58;100323.09;7387297;19;20046;-59
2023/02/20 03:28:56;;;;;;;0.32;0.30;;;;;;;23.31;61.98;100308.75;7390003;19;20478;-59
2023/02/20 03:31:36;;;;;;;0.10;0.10;;;;;;;20.44;71.27;100319.56;7385705;19;20037;-59
2023/02/20 03:45:40;;;;;;;0.10;0.10;;;;;;;19.43;89.09;100307.69;7396327;19;20394;-58
2023/02/20 03:48:13;;;;;;;0.20;0.10;;;;;;;22.93;75.81;100295.47;7392818;19;20423;-58
2023/02/20 03:50:40;;;;;;;0.10;0.03;;;;;;;18.48;87.75;100299.03;7395039;19;20018;-59
2023/02/20 03:53:06;;;;;;;0.10;0.00;;;;;;;22.93;71.59;100279.19;7397057;19;20006;-58
2023/02/20 03:55:33;;;;;;;0.10;0.10;;;;;;;20.84;72.96;100279.66;7392951;19;20021;-59
2023/02/20 03:58:07;;;;;;;0.10;0.10;;;;;;;21.74;77.01;100272.00;7396139;19;20024;-59
2023/02/20 04:00:40;;;;;;;0.10;0.10;;;;;;;20.55;82.47;100274.94;7391459;19;20857;-59
2023/02/20 04:03:17;;;;;;;0.10;0.10;;;;;;;18.34;92.24;100288.81;7397558;19;20034;-59
2023/02/20 04:05:51;;;;;;;0.25;0.10;;;;;;;19.59;81.83;100287.78;7392779;19;20034;-58
2023/02/20 04:08:43;;;;;;;0.10;0.10;;;;;;;19.93;80.19;100295.91;7392510;19;20362;-58
2023/02/20 04:11:20;;;;;;;0.10;0.00;;;;;;;20.55;85.96;100282.66;7393961;19;20025;-59
2023/02/20 04:13:49;;;;;;;0.10;0.10;;;;;;;23.18;71.94;100279.63;7393418;19;20018;-59
2023/02/20 04:16:15;;;;;;;0.10;0.10;;;;;;;21.94;75.11;100273.50;7393198;19;20010;-59
2023/02/20 04:18:42;;;;;;;0.10;0.08;;;;;;;22.75;69.24;100270.81;7392145;19;20010;-59
2023/02/20 04:21:22;;;;;;;0.10;0.10;;;;;;;22.71;68.08;100271.16;7390763;19;20033;-59
2023/02/20 04:24:00;;;;;;;0.10;0.10;;;;;;;22.67;67.03;100273.59;7392234;19;20010;-59
2023/02/20 04:26:26;;;;;;;0.10;0.10;;;;;;;23.06;66.10;100269.84;7392383;19;20014;-59
2023/02/20 04:28:53;;;;;;;0.10;0.10;;;;;;;22.17;67.39;100274.59;7395615;19;20014;-59
2023/02/20 04:31:20;;;;;;;0.30;0.10;;;;;;;20.99;68.93;100277.13;7392345;19;20025;-59
2023/02/20 04:33:47;;;;;;;0.20;0.20;;;;;;;20.73;71.97;100262.06;7392407;19;20015;-59
2023/02/20 04:36:22;;;;;;;0.10;0.10;;;;;;;22.32;68.48;100263.47;7392075;19;20628;-59
2023/02/20 04:38:50;;;;;;;0.10;0.10;;;;;;;23.58;64.02;100272.47;7391754;19;20113;-59
2023/02/20 04:41:20;;;;;;;0.15;0.05;;;;;;;22.75;65.31;100280.13;7389859;19;20014;-59
2023/02/20 04:43:48;;;;;;;0.10;0.00;;;;;;;23.47;64.02;100289.03;7393072;19;20038;-59
2023/02/20 04:46:15;;;;;;;0.10;0.00;;;;;;;24.24;61.49;100289.06;7395298;19;20037;-59
2023/02/20 04:48:41;;;;;;;0.10;0.00;;;;;;;22.57;64.54;100293.09;7391969;19;20014;-59
2023/02/20 04:51:08;;;;;;;0.50;0.10;;;;;;;23.44;62.26;100292.97;7392426;19;20481;-59
2023/02/20 04:53:35;;;;;;;0.10;0.00;;;;;;;22.05;66.02;100293.13;7391767;19;20010;-59
2023/02/20 04:56:01;;;;;;;0.10;0.00;;;;;;;21.73;67.42;100296.03;7393116;19;20027;-59
2023/02/20 04:58:27;;;;;;;0.10;0.00;;;;;;;24.09;63.62;100299.03;7392250;19;20010;-59
2023/02/20 05:00:57;;;;;;;0.10;0.10;;;;;;;22.50;64.85;100298.69;7388171;19;20014;-59
2023/02/20 05:03:24;;;;;;;0.10;0.08;;;;;;;21.85;66.31;100299.47;7396183;19;20043;-60
2023/02/20 05:05:50;;;;;;;0.10;0.10;;;;;;;21.57;67.86;100302.00;7392195;19;20031;-59
2023/02/20 05:08:16;;;;;;;0.10;0.00;;;;;;;21.75;67.79;100301.91;7392600;19;20514;-59
2023/02/20 05:10:42;;;;;;;0.10;0.10;;;;;;;21.63;69.11;100305.50;7392504;19;20006;-59
2023/02/20 05:13:08;;;;;;;0.10;0.00;;;;;;;21.68;69.62;100299.72;7395998;19;20021;-60
2023/02/20 05:15:34;;;;;;;0.10;0.10;;;;;;;21.72;69.54;100299.41;7392351;19;20010;-59
2023/02/20 05:18:01;;;;;;;0.10;0.00;;;;;;;22.28;68.04;100305.59;7391856;19;20010;-58
2023/02/20 05:23:12;;;;;;;0.10;0.10;;;;;;;20.30;90.10;100305.31;7395157;19;20033;-59
2023/02/20 05:25:38;;;;;;;0.10;0.10;;;;;;;28.95;55.11;100292.06;7390836;19;20018;-59
2023/02/20 05:28:04;;;;;;;0.00;0.00;;;;;;;31.17;46.21;100290.59;7391503;19;20014;-59
2023/02/20 05:30:30;;;;;;;0.10;0.10;;;;;;;30.69;43.84;100278.38;7391296;19;20070;-59
2023/02/20 05:32:56;;;;;;;0.10;0.00;;;;;;;25.81;49.69;100281.56;7395041;19;20033;-59
2023/02/20 05:35:23;;;;;;;1.85;0.52;;;;;;;30.59;43.50;100269.03;7391941;19;20018;-59
2023/02/20 05:37:49;;;;;;;0.10;0.00;;;;;;;30.87;41.90;100271.13;7392032;19;20021;-59
2023/02/20 05:40:15;;;;;;;0.17;0.17;;;;;;;31.54;40.31;100265.19;7392576;19;20016;-60
2023/02/20 05:42:41;;;;;;;0.10;0.00;;;;;;;29.68;39.77;100276.44;7394000;19;20025;-59
2023/02/20 05:45:08;;;;;;;0.90;0.17;;;;;;;14.54;100.00;100297.97;7391967;19;20014;-59
2023/02/20 05:47:37;;;;;;;0.00;0.00;;;;;;;27.33;61.42;100259.69;7395751;19;20006;-59
2023/02/20 05:50:03;;;;;;;0.10;0.00;;;;;;;12.22;100.00;100295.63;7390841;19;20072;-59
2023/02/20 05:52:30;;;;;;;1.08;0.40;;;;;;;9.75;100.00;100306.13;7393385;19;20014;-59
2023/02/20 05:54:56;;;;;;;0.00;0.00;;;;;;;9.04;100.00;100292.22;7389819;19;20021;-59
2023/02/20 05:57:22;;;;;;;0.10;0.00;;;;;;;8.77;100.00;100289.25;7390203;19;20416;-59
2023/02/20 05:59:48;;;;;;;0.10;0.08;;;;;;;8.57;100.00;100290.81;7390437;19;20010;-59
2023/02/20 06:02:14;;;;;;;0.10;0.00;;;;;;;8.88;100.00;100297.97;7391626;19;20069;-59
2023/02/20 06:04:40;;;;;;;0.10;0.10;;;;;;;9.05;100.00;100288.22;7389330;19;20092;-59
2023/02/20 06:07:09;;;;;;;0.10;0.10;;;;;;;22.25;100.00;100264.13;7389303;19;20037;-59
2023/02/20 06:09:35;;;;;;;6.30;0.43;;;;;;;29.95;55.26;100247.66;7389831;19;20363;-59
2023/02/20 06:12:02;;;;;;;0.10;0.10;;;;;;;31.48;46.50;100240.97;7392597;19;20018;-59
2023/02/20 06:14:28;;;;;;;0.10;0.00;;;;;;;32.49;42.19;100243.63;7390875;19;20043;-59
2023/02/20 06:16:56;;;;;;;0.10;0.00;;;;;;;32.52;40.84;100256.06;7393676;19;20010;-59
2023/02/20 06:19:23;;;;;;;0.10;0.10;;;;;;;31.60;40.12;100253.34;7390363;19;20569;-59
2023/02/20 06:21:57;;;;;;;0.10;0.00;;;;;;;32.72;37.99;100271.81;7392319;19;20010;-60
2023/02/20 06:24:23;;;;;;;0.10;0.10;;;;;;;29.58;39.93;100280.63;7389142;19;20089;-59
2023/02/20 06:26:50;;;;;;;0.10;0.10;;;;;;;31.54;39.20;100279.56;7390148;19;20095;-59
2023/02/20 06:29:17;;;;;;;0.10;0.10;;;;;;;32.21;37.61;100270.56;7389836;19;20117;-59
2023/02/20 06:31:43;;;;;;;0.10;0.10;;;;;;;32.48;37.12;100276.75;7390858;19;20021;-59
2023/02/20 06:34:10;;;;;;;1.65;0.65;;;;;;;32.74;35.92;100269.84;7389364;19;20420;-59
2023/02/20 06:36:39;;;;;;;0.10;0.10;;;;;;;30.35;37.66;100261.47;7389640;19;20003;-59
2023/02/20 06:39:07;;;;;;;0.10;0.10;;;;;;;30.83;37.88;100262.19;7389830;19;20407;-59
2023/02/20 06:41:33;;;;;;;0.10;0.10;;;;;;;31.89;36.67;100251.03;7387042;19;20019;-60
2023/02/20 06:44:00;;;;;;;0.10;0.00;;;;;;;31.59;36.06;100249.69;7389216;19;20007;-59
2023/02/20 06:46:26;;;;;;;0.10;0.10;;;;;;;30.67;36.53;100247.38;7391017;19;20715;-59
2023/02/20 06:48:57;;;;;;;0.10;0.00;;;;;;;31.06;36.41;100253.81;7389353;19;20014;-59
2023/02/20 06:51:26;;;;;;;;;;;;;;;32.71;34.66;100247.97;7390458;19;20006;-59
2023/02/20 06:53:53;;;;;;;0.10;0.10;;;;;;;32.83;34.18;100243.00;7389682;19;19915;-59
2023/02/20 06:56:25;;;;;;;0.20;0.10;;;;;;;32.62;34.08;100239.41;7390050;19;20015;-59
2023/02/20 06:58:53;;;;;;;0.10;0.00;;;;;;;26.62;45.74;100244.81;7387731;19;20015;-59
2023/02/20 07:01:22;;;;;;;0.10;0.00;;;;;;;30.08;39.61;100252.22;7386669;19;20014;-59
2023/02/20 07:03:49;;;;;;;0.10;0.10;;;;;;;31.89;36.14;100237.38;7387955;19;20501;-59
2023/02/20 07:06:16;;;;;;;0.10;0.05;;;;;;;32.76;34.54;100238.22;7388800;19;20081;-58
2023/02/20 07:08:42;;;;;;;2.88;0.20;;;;;;;33.27;33.65;100238.56;7389286;19;20011;-59
2023/02/20 07:11:09;;;;;;;0.20;0.20;;;;;;;31.65;35.31;100237.84;7388206;19;20010;-59
2023/02/20 07:13:35;;;;;;;0.10;0.10;;;;;;;33.03;33.43;100232.00;7388354;19;20034;-59
2023/02/20 07:16:01;;;;;;;0.10;0.00;;;;;;;33.06;33.10;100230.78;7388846;19;20366;-59
2023/02/20 07:18:27;;;;;;;0.10;0.00;;;;;;;32.97;33.70;100225.06;7390486;19;20011;-59
2023/02/20 07:20:54;;;;;;;0.10;0.10;;;;;;;30.10;35.87;100241.63;7393222;19;20010;-59
2023/02/20 07:23:21;;;;;;;0.30;0.05;;;;;;;23.68;45.65;100247.13;7399593;19;20007;-59
2023/02/20 07:25:48;;;;;;;0.10;0.10;;;;;;;21.80;54.66;100249.25;7395634;19;20032;-59
2023/02/20 07:28:17;;;;;;;0.10;0.10;;;;;;;22.12;57.72;100247.09;7396053;19;20017;-59
2023/02/20 07:30:45;;;;;;;0.10;0.10;;;;;;;21.63;60.43;100249.56;7395412;19;20014;-59
2023/02/20 07:33:11;;;;;;;0.10;0.10;;;;;;;21.00;65.47;100252.41;7399840;19;20010;-59
2023/02/20 07:35:37;;;;;;;0.00;0.00;;;;;;;21.80;63.23;100240.75;7396016;19;20003;-59
2023/02/20 07:38:06;;;;;;;0.10;0.10;;;;;;;21.62;64.85;100241.59;7397499;19;20044;-59
2023/02/20 07:40:32;;;;;;;0.43;0.43;;;;;;;20.85;68.51;100252.13;7393428;19;20021;-59
2023/02/20 07:42:59;;;;;;;0.10;0.10;;;;;;;19.41;81.00;100254.56;7398685;19;20403;-59
2023/02/20 07:45:28;;;;;;;0.10;0.10;;;;;;;20.26;79.41;100259.59;7396058;19;20042;-59
2023/02/20 07:47:54;;;;;;;0.10;0.10;;;;;;;20.21;82.46;100259.66;7394527;19;20018;-59
2023/02/20 07:50:20;;;;;;;0.10;0.00;;;;;;;21.59;75.41;100251.19;7395521;19;20021;-59
2023/02/20 07:52:47;;;;;;;0.10;0.10;;;;;;;21.45;74.80;100263.78;7399035;19;20007;-59
2023/02/20 07:55:16;;;;;;;0.08;0.00;;;;;;;22.29;72.24;100258.09;7394117;19;20042;-59
2023/02/20 07:57:45;;;;;;;0.10;0.00;;;;;;;22.43;68.81;100260.41;7391946;19;20525;-59
2023/02/20 08:00:14;;;;;;;0.10;0.10;;;;;;;21.24;73.04;100266.47;7390976;19;20027;-59
2023/02/20 08:02:40;;;;;;;0.20;0.20;;;;;;;20.98;75.74;100255.78;7396734;19;20014;-58
2023/02/20 08:05:22;;;;;;;0.10;0.10;;;;;;;21.71;73.99;100258.19;7400180;19;20332;-60
2023/02/20 08:07:55;;;;;;;0.20;0.20;;;;;;;21.64;73.48;100258.81;7393700;19;20014;-57
2023/02/20 08:10:25;;;;;;;0.80;0.10;;;;;;;20.75;78.34;100259.44;7394806;19;20015;-57
2023/02/20 08:12:52;;;;;;;0.10;0.10;;;;;;;21.08;77.49;100254.09;7397696;19;20039;-57
2023/02/20 08:15:19;;;;;;;0.10;0.10;;;;;;;20.54;79.86;100261.28;7394465;19;20018;-57
2023/02/20 08:17:45;;;;;;;0.10;0.00;;;;;;;21.15;78.24;100269.69;7392823;19;20011;-57
2023/02/20 08:20:12;;;;;;;0.10;0.00;;;;;;;20.45;81.91;100268.09;7395184;19;20010;-57
2023/02/20 08:22:38;;;;;;;0.10;0.00;;;;;;;20.64;81.17;100274.53;7396906;19;20039;-57
2023/02/20 08:25:05;;;;;;;0.10;0.00;;;;;;;20.30;83.02;100277.03;7397586;19;20007;-57
2023/02/20 08:27:31;;;;;;;0.10;0.00;;;;;;;20.82;81.55;100270.94;7393589;19;20021;-57
2023/02/20 08:29:58;;;;;;;0.10;0.10;;;;;;;20.75;80.23;100282.88;7392663;19;20485;-57
2023/02/20 08:32:24;;;;;;;0.03;0.00;;;;;;;20.16;84.67;100295.16;7395173;19;20007;-58
2023/02/20 08:34:50;;;;;;;0.00;0.00;;;;;;;21.41;79.22;100280.34;7393287;19;20081;-58
2023/02/20 08:37:16;;;;;;;0.10;0.10;;;;;;;21.78;76.30;100285.91;7394081;19;20014;-57
2023/02/20 08:39:42;;;;;;;0.00;0.00;;;;;;;20.82;79.99;100290.75;7392466;19;20025;-57
2023/02/20 08:42:09;;;;;;;0.10;0.00;;;;;;;20.59;81.46;100283.88;7394493;19;20020;-57
2023/02/20 08:44:35;;;;;;;0.10;0.10;;;;;;;20.87;80.33;100281.41;7393918;19;20036;-58
2023/02/20 08:47:01;;;;;;;0.32;0.32;;;;;;;20.19;83.93;100293.31;7396474;19;20074;-58
2023/02/20 08:49:27;;;;;;;0.10;0.10;;;;;;;20.02;88.60;100301.22;7393262;19;20010;-58
2023/02/20 08:51:54;;;;;;;0.25;0.25;;;;;;;20.33;87.11;100292.19;7394235;19;20362;-58
2023/02/20 08:54:21;;;;;;;0.15;0.10;;;;;;;20.39;86.84;100298.53;7392859;19;20015;-57
2023/02/20 08:56:47;;;;;;;0.20;0.20;;;;;;;19.61;90.90;100298.56;7393131;19;20031;-57
2023/02/20 08:59:13;;;;;;;0.43;0.10;;;;;;;21.42;81.10;100291.13;7392466;19;20011;-58
2023/02/20 09:01:42;;;;;;;0.10;0.00;;;;;;;20.37;86.03;100304.72;7390638;19;20033;-57
2023/02/20 09:04:09;;;;;;;0.00;0.00;;;;;;;19.97;89.34;100304.88;7392475;19;20026;-58
2023/02/20 09:06:36;;;;;;;0.10;0.00;;;;;;;20.21;87.69;100314.16;7390277;19;20367;-57
2023/02/20 09:09:03;;;;;;;0.10;0.10;;;;;;;20.24;87.67;100312.34;7390946;19;20010;-57
2023/02/20 09:11:29;;;;;;;0.00;0.00;;;;;;;19.98;89.89;100312.06;7393939;19;20018;-57
2023/02/20 09:13:55;;;;;;;0.30;0.10;;;;;;;20.50;85.65;100311.75;7392064;19;20011;-57
2023/02/20 09:16:23;;;;;;;0.10;0.00;;;;;;;20.14;87.97;100299.84;7394307;19;20007;-57
2023/02/20 09:18:49;;;;;;;0.10;0.10;;;;;;;19.63;91.21;100305.22;7391144;19;20014;-57
2023/02/20 09:21:18;;;;;;;3.15;0.38;;;;;;;19.16;95.49;100317.88;7390229;19;20021;-57
2023/02/20 09:23:44;;;;;;;0.13;0.13;;;;;;;19.65;92.07;100305.44;7392464;19;20482;-58
2023/02/20 09:26:11;;;;;;;0.00;0.00;;;;;;;18.98;97.85;100307.22;7395854;19;20024;-57
2023/02/20 09:28:37;;;;;;;0.10;0.00;;;;;;;19.27;97.64;100309.34;7395215;19;20208;-57
2023/02/20 09:31:03;;;;;;;0.10;0.00;;;;;;;19.04;97.51;100305.13;7395736;19;20015;-58
2023/02/20 09:33:29;;;;;;;0.30;0.30;;;;;;;19.02;98.56;100296.41;7393992;19;20010;-57
2023/02/20 09:35:56;;;;;;;0.10;0.00;;;;;;;19.32;97.69;100297.22;7392698;19;20018;-57
2023/02/20 09:38:25;;;;;;;0.30;0.10;;;;;;;19.25;98.83;100297.78;7391585;19;20019;-58
2023/02/20 09:40:57;;;;;;;1.45;0.20;;;;;;;18.98;100.00;100295.94;7387935;19;20014;-58
2023/02/20 09:43:35;;;;;;;0.08;0.08;;;;;;;19.95;95.91;100296.16;7394334;19;20014;-58
2023/02/20 09:46:08;;;;;;;0.10;0.00;;;;;;;19.73;95.95;100290.75;7394636;19;20342;-58
2023/02/20 09:48:42;;;;;;;2.80;0.20;;;;;;;20.10;92.49;100285.19;7390869;19;20017;-58
2023/02/20 09:51:23;;;;;;;0.00;0.00;;;;;;;19.57;96.75;100292.44;7390556;19;20016;-58
2023/02/20 09:53:53;;;;;;;0.00;0.00;;;;;;;20.36;93.94;100299.56;7390686;19;20458;-58
2023/02/20 09:56:24;;;;;;;0.55;0.10;;;;;;;20.89;88.77;100297.88;7390173;19;20018;-58
2023/02/20 09:59:01;;;;;;;0.10;0.00;;;;;;;21.24;85.21;100291.19;7390275;19;20014;-58
2023/02/20 10:01:29;;;;;;;0.08;0.05;;;;;;;19.60;93.64;100294.97;7387355;19;20074;-58
2023/02/20 10:04:09;;;;;;;0.10;0.00;;;;;;;19.38;96.93;100300.78;7389559;19;20474;-58
2023/02/20 10:06:35;;;;;;;8.77;0.55;;;;;;;20.34;93.71;100288.03;7390813;19;20010;-58
2023/02/20 10:09:03;;;;;;;0.20;0.10;;;;;;;21.55;84.38;100273.44;7391140;19;20006;-58
2023/02/20 10:12:03;;;;;;;4.03;0.63;;;;;;;21.95;83.13;100279.94;7391868;19;20021;-58
2023/02/20 10:14:33;;;;;;;0.10;0.10;;;;;;;20.70;88.33;100291.44;7390392;19;20471;-58
2023/02/20 10:17:39;;;;;;;1.17;0.35;;;;;;;22.63;80.63;100289.44;7392490;19;20011;-58
2023/02/20 10:20:32;;;;;;;2.33;0.70;;;;;;;23.56;73.49;100292.16;7387078;19;20014;-58
2023/02/20 10:23:07;;;;;;;0.10;0.00;;;;;;;23.30;72.63;100290.16;7392512;19;20018;-58
2023/02/20 10:25:42;;;;;;;0.20;0.20;;;;;;;24.00;69.74;100290.97;7390386;19;20021;-58
2023/02/20 10:28:11;;;;;;;0.00;0.00;;;;;;;22.32;73.64;100291.84;7390460;19;20006;-58
2023/02/20 10:30:53;;;;;;;0.10;0.10;;;;;;;21.19;79.73;100289.19;7390684;19;20014;-58
2023/02/20 10:33:32;;;;;;;0.32;0.13;;;;;;;21.76;79.93;100299.84;7394454;19;20021;-58
2023/02/20 10:36:07;;;;;;;0.80;0.20;;;;;;;22.30;76.66;100291.63;7390360;19;20474;-58
2023/02/20 10:38:40;;;;;;;0.40;0.10;;;;;;;22.16;77.01;100304.28;7389327;19;20014;-58
2023/02/20 10:41:44;;;;;;;0.10;0.00;;;;;;;21.48;78.48;100308.06;7389279;19;20011;-58
2023/02/20 10:44:21;;;;;;;0.00;0.00;;;;;;;21.68;79.54;100299.72;7392068;19;20021;-58
2023/02/20 10:47:03;;;;;;;0.13;0.08;;;;;;;21.63;79.26;100296.97;7393143;19;20014;-58
2023/02/20 10:49:40;;;;;;;0.15;0.15;;;;;;;23.20;73.38;100291.19;7390605;19;20037;-58
2023/02/20 10:52:12;;;;;;;0.20;0.13;;;;;;;22.61;73.28;100287.13;7394700;19;20458;-58
2023/02/20 10:54:49;;;;;;;0.10;0.00;;;;;;;24.84;66.66;100300.75;7396893;19;20040;-58
2023/02/20 10:57:39;;;;;;;0.20;0.17;;;;;;;26.27;62.22;100285.88;7400039;19;20033;-58
2023/02/20 11:00:09;;;;;;;0.10;0.00;;;;;;;24.70;63.57;100290.81;7399104;19;20011;-58
2023/02/20 11:02:56;;;;;;;4.15;0.52;;;;;;;23.96;65.94;100298.34;7400882;19;20014;-58
2023/02/20 11:05:25;;;;;;;0.10;0.00;;;;;;;24.10;65.91;100291.28;7400848;19;20078;-58
2023/02/20 11:07:52;;;;;;;0.80;0.38;;;;;;;23.71;66.18;100283.00;7397696;19;20014;-58
2023/02/20 11:10:21;;;;;;;2.30;0.20;;;;;;;24.55;64.33;100279.38;7398332;19;20031;-58
2023/02/20 11:12:50;;;;;;;3.70;0.85;;;;;;;24.54;63.92;100277.81;7399991;19;20094;-57
2023/02/20 11:15:31;;;;;;;0.28;0.08;;;;;;;25.40;63.55;100283.41;7396589;19;20008;-57
2023/02/20 11:17:58;;;;;;;0.80;0.28;;;;;;;26.92;58.16;100267.56;7394635;19;20010;-58
2023/02/20 11:20:34;;;;;;;1.88;0.40;;;;;;;29.81;52.76;100273.16;7395804;19;20462;-58
2023/02/20 11:23:01;;;;;;;11.25;0.95;;;;;;;27.55;54.74;100273.06;7398857;19;20018;-58
2023/02/20 11:25:30;;;;;;;12.82;3.15;;;;;;;28.18;53.03;100271.38;7395073;19;20014;-57
2023/02/20 11:28:19;;;;;;;8.80;1.38;;;;;;;27.81;52.73;100261.00;7394869;19;20118;-58
2023/02/20 11:30:48;;;;;;;1.33;0.43;;;;;;;27.95;51.79;100265.09;7395365;19;20011;-58
2023/02/20 11:33:21;;;;;;;7.63;1.02;;;;;;;27.86;52.54;100273.56;7398888;19;20026;-57
2023/02/20 11:35:50;;;;;;;8.35;1.63;;;;;;;28.79;50.78;100273.53;7396282;19;20011;-57
2023/02/20 11:38:22;;;;;;;7.07;1.73;;;;;;;29.39;48.77;100266.94;7395563;19;20014;-57
2023/02/20 11:40:52;;;;;;;0.57;0.30;;;;;;;31.70;45.37;100260.56;7393002;19;20013;-58
2023/02/20 11:43:24;;;;;;;1.65;0.50;;;;;;;29.20;48.07;100261.13;7399172;19;20353;-58
2023/02/20 11:46:05;;;;;;;1.10;0.43;;;;;;;27.37;50.28;100262.94;7399651;19;20490;-58
2023/02/20 11:48:32;;;;;;;2.38;1.05;;;;;;;28.16;49.36;100256.09;7395441;19;20014;-58
2023/02/20 11:50:58;;;;;;;7.68;1.13;;;;;;;29.23;48.19;100254.19;7393532;19;20011;-58
2023/02/20 11:53:24;;;;;;;2.92;0.65;;;;;;;30.16;46.37;100247.06;7398408;19;20062;-58